Time;durP1;ratioP1;P1;durP2;ratioP2;P2;SDS_P1;SDS_P2;PMS_P1;PMS_P2;Temp;Humidity;BMP_temperature;BMP_pressure;BME280_temperature;BME280_humidity;BME280_pressure;Samples;Min_cycle;Max_cycle;Signal;HPM_P1;HPM_P2
2024/02/09 00:00:02;;;;;;;1.60;1.50;;;;;;;3.86;91.60;98225.38;5011266;28;20227;-74
2024/02/09 00:02:31;;;;;;;1.70;1.60;;;;;;;3.90;91.12;98227.81;5011006;28;20203;-74
2024/02/09 00:04:58;;;;;;;1.70;1.60;;;;;;;3.87;91.07;98240.81;5019577;28;20214;-74
2024/02/09 00:07:25;;;;;;;2.00;1.90;;;;;;;3.85;91.57;98224.53;5009925;28;20236;-74
2024/02/09 00:09:51;;;;;;;1.93;1.80;;;;;;;3.85;91.43;98224.53;5009460;28;20262;-74
2024/02/09 00:12:20;;;;;;;2.20;2.10;;;;;;;3.86;91.75;98213.31;5009632;28;20208;-74
2024/02/09 00:14:47;;;;;;;1.93;1.83;;;;;;;3.88;91.75;98208.94;5009427;28;20208;-74
2024/02/09 00:17:13;;;;;;;2.20;2.10;;;;;;;3.89;91.66;98205.50;5001044;28;20723;-74
2024/02/09 00:19:40;;;;;;;1.77;1.67;;;;;;;3.85;92.30;98200.47;5010066;28;20293;-75
2024/02/09 00:22:07;;;;;;;2.20;2.00;;;;;;;3.88;92.15;98188.31;5009662;28;20211;-74
2024/02/09 00:24:35;;;;;;;1.90;1.80;;;;;;;3.93;92.11;98194.19;5009503;28;20662;-75
2024/02/09 00:27:02;;;;;;;2.37;2.17;;;;;;;3.95;91.55;98194.16;5010651;28;20241;-74
2024/02/09 00:29:29;;;;;;;1.90;1.80;;;;;;;3.93;91.58;98195.94;5011036;28;20303;-74
2024/02/09 00:31:55;;;;;;;2.00;1.90;;;;;;;3.90;92.18;98183.09;5010638;28;20903;-74
2024/02/09 00:34:21;;;;;;;1.90;1.80;;;;;;;3.93;92.87;98173.56;5011316;28;20683;-75
2024/02/09 00:36:49;;;;;;;1.90;1.80;;;;;;;4.01;91.81;98163.00;5011288;28;20232;-75
2024/02/09 00:39:17;;;;;;;2.00;1.90;;;;;;;4.04;91.49;98174.97;5010601;28;20203;-75
2024/02/09 00:41:44;;;;;;;2.20;2.10;;;;;;;4.08;90.95;98186.91;5010634;28;20226;-74
2024/02/09 00:44:10;;;;;;;1.90;1.80;;;;;;;4.06;91.16;98183.50;5011091;28;20250;-74
2024/02/09 00:46:42;;;;;;;1.80;1.70;;;;;;;4.06;91.35;98179.19;5010577;28;20322;-74
2024/02/09 00:49:09;;;;;;;2.10;2.00;;;;;;;4.12;91.39;98167.84;5011157;28;20676;-75
2024/02/09 00:51:36;;;;;;;2.10;2.00;;;;;;;4.14;90.95;98172.09;5010843;28;20205;-75
2024/02/09 00:54:02;;;;;;;2.00;1.90;;;;;;;4.14;90.77;98172.09;5010475;28;20234;-74
2024/02/09 00:56:30;;;;;;;1.80;1.70;;;;;;;4.12;91.48;98176.47;5013158;28;20232;-74
2024/02/09 00:58:57;;;;;;;1.90;1.80;;;;;;;4.15;91.38;98165.19;5014275;28;20293;-74
2024/02/09 01:01:23;;;;;;;2.23;2.13;;;;;;;4.16;90.93;98159.13;5014590;28;20224;-75
2024/02/09 01:03:49;;;;;;;2.00;1.90;;;;;;;4.15;91.29;98160.84;5014826;28;20356;-75
2024/02/09 01:06:21;;;;;;;2.40;2.30;;;;;;;4.17;90.55;98166.81;5014211;28;20288;-74
2024/02/09 01:08:47;;;;;;;2.30;2.20;;;;;;;4.19;90.87;98169.38;5014031;28;20213;-74
2024/02/09 01:11:16;;;;;;;1.97;1.87;;;;;;;4.20;90.60;98162.47;5014545;28;20195;-75
2024/02/09 02:46:23;;;;;;;2.40;2.20;;;;;;;4.40;91.41;98028.41;5008486;28;20228;-74
2024/02/09 03:05:20;;;;;;;2.47;2.27;;;;;;;4.40;92.73;97991.38;5012589;28;20577;-75
2024/02/09 03:07:49;;;;;;;2.80;2.60;;;;;;;4.43;92.54;97976.63;5012112;28;20239;-75
2024/02/09 03:10:16;;;;;;;3.07;2.83;;;;;;;4.35;92.59;97963.97;5011658;28;20204;-74
2024/02/09 03:12:42;;;;;;;2.77;2.57;;;;;;;4.32;93.73;97947.75;5012304;28;20272;-75
2024/02/09 03:15:09;;;;;;;3.23;3.03;;;;;;;4.37;93.07;97951.84;5011891;28;20258;-75
2024/02/09 03:17:37;;;;;;;2.97;2.77;;;;;;;4.40;93.77;97939.72;5011540;28;20227;-75
2024/02/09 03:20:05;;;;;;;3.00;2.80;;;;;;;4.41;93.32;97925.94;5010970;28;20204;-75
2024/02/09 03:22:32;;;;;;;3.27;2.97;;;;;;;4.45;92.97;97927.53;5011590;28;20208;-75
2024/02/09 03:25:01;;;;;;;3.00;2.80;;;;;;;4.49;93.27;97924.75;5011695;28;20212;-75
2024/02/09 03:27:29;;;;;;;2.73;2.53;;;;;;;4.48;92.64;97919.66;5012097;28;20228;-72
2024/02/09 03:29:56;;;;;;;3.00;2.80;;;;;;;4.52;92.22;97936.72;5011420;28;20686;-73
2024/02/09 03:32:22;;;;;;;2.77;2.57;;;;;;;4.54;91.97;97943.53;5011404;28;20208;-72
2024/02/09 03:34:49;;;;;;;3.30;2.83;;;;;;;4.51;92.17;97933.31;5011841;28;20205;-73
2024/02/09 03:37:16;;;;;;;2.70;2.50;;;;;;;4.48;92.20;97935.13;5011439;28;20231;-74
2024/02/09 03:39:42;;;;;;;2.83;2.63;;;;;;;4.51;92.67;97924.72;5011414;28;20253;-75
2024/02/09 03:42:10;;;;;;;2.90;2.70;;;;;;;4.49;93.24;97913.59;5011762;28;20234;-74
2024/02/09 03:44:37;;;;;;;2.67;2.47;;;;;;;4.47;92.79;97911.06;5011546;28;20204;-75
2024/02/09 03:47:04;;;;;;;2.90;2.70;;;;;;;4.43;93.38;97898.31;5010925;28;20236;-75
2024/02/09 03:49:30;;;;;;;12.50;3.53;;;;;;;4.48;93.37;97891.22;5019861;28;20212;-75
2024/02/09 03:51:56;;;;;;;2.93;2.70;;;;;;;4.50;92.80;97884.28;5011315;28;20270;-74
2024/02/09 03:54:23;;;;;;;2.93;2.73;;;;;;;4.50;92.53;97882.56;5003125;28;20235;-75
2024/02/09 03:56:49;;;;;;;2.83;2.63;;;;;;;4.51;92.48;97885.97;5011703;28;20282;-74
2024/02/09 03:59:17;;;;;;;3.27;3.00;;;;;;;4.52;92.31;97896.25;5010998;28;20617;-74
2024/02/09 04:01:43;;;;;;;3.13;2.93;;;;;;;4.51;92.11;97893.72;5011159;28;20645;-75
2024/02/09 04:04:09;;;;;;;3.60;3.30;;;;;;;4.45;92.85;97887.03;5010959;28;20276;-74
2024/02/09 04:06:36;;;;;;;3.23;2.93;;;;;;;4.43;92.29;97882.81;5011254;28;20246;-74
2024/02/09 04:09:02;;;;;;;3.00;2.80;;;;;;;4.45;92.64;97883.59;5010608;28;20212;-74
2024/02/09 04:11:29;;;;;;;3.20;3.00;;;;;;;4.49;92.72;97882.59;5011437;28;20212;-72
2024/02/09 04:13:55;;;;;;;3.07;2.83;;;;;;;4.43;93.48;97882.81;5019371;28;20693;-75
2024/02/09 04:16:23;;;;;;;3.60;3.30;;;;;;;4.47;93.40;97863.72;5011027;28;20281;-74
2024/02/09 04:18:49;;;;;;;3.40;3.10;;;;;;;4.48;93.57;97867.97;5010805;28;20268;-75
2024/02/09 04:21:16;;;;;;;3.43;3.13;;;;;;;4.49;93.34;97867.94;5013542;28;20284;-75
2024/02/09 04:23:42;;;;;;;3.50;3.20;;;;;;;4.46;94.13;97862.91;5016189;28;20215;-75
2024/02/09 04:26:09;;;;;;;3.10;2.90;;;;;;;4.53;93.44;97853.19;5011293;28;20207;-74
2024/02/09 04:28:36;;;;;;;3.80;3.50;;;;;;;4.53;93.20;97848.84;5010916;28;20671;-74
2024/02/09 04:31:02;;;;;;;3.70;3.40;;;;;;;4.56;92.61;97855.66;5012648;28;20257;-74
2024/02/09 04:33:31;;;;;;;4.20;3.60;;;;;;;4.52;92.77;97847.19;5014949;28;20209;-75
2024/02/09 04:35:58;;;;;;;3.53;3.30;;;;;;;4.55;93.34;97846.22;5015343;28;20205;-75
2024/02/09 04:38:25;;;;;;;3.27;2.97;;;;;;;4.60;92.97;97846.03;5014497;28;20653;-74
2024/02/09 04:40:51;;;;;;;3.90;3.60;;;;;;;4.56;93.02;97846.16;5014800;28;20282;-75
2024/02/09 04:43:17;;;;;;;4.73;4.30;;;;;;;4.60;93.01;97841.72;5016766;28;20675;-74
2024/02/09 04:45:45;;;;;;;3.80;3.50;;;;;;;4.61;93.01;97845.97;5020169;28;20212;-75
2024/02/09 04:48:12;;;;;;;4.33;3.93;;;;;;;4.57;93.31;97837.50;5014214;28;20347;-74
2024/02/09 04:50:39;;;;;;;4.23;3.93;;;;;;;4.65;93.42;97838.97;5015130;28;20648;-74
2024/02/09 04:53:06;;;;;;;4.17;3.87;;;;;;;4.62;92.86;97834.75;5013830;28;20229;-74
2024/02/09 04:55:34;;;;;;;4.07;3.77;;;;;;;4.66;93.13;97830.31;5014948;28;20207;-75
2024/02/09 04:58:03;;;;;;;4.07;3.67;;;;;;;4.67;93.22;97822.50;5014665;28;20255;-75
2024/02/09 05:00:29;;;;;;;4.53;4.13;;;;;;;4.65;93.39;97810.56;5006212;28;20292;-74
2024/02/09 05:02:56;;;;;;;4.23;3.93;;;;;;;4.67;93.59;97808.75;5014735;28;20208;-74
2024/02/09 05:05:23;;;;;;;4.90;4.50;;;;;;;4.71;93.53;97805.97;5014819;28;20209;-74
2024/02/09 05:07:51;;;;;;;4.57;4.17;;;;;;;4.73;93.37;97806.75;5014379;28;20721;-75
2024/02/09 05:10:17;;;;;;;4.93;4.53;;;;;;;4.76;93.09;97798.91;5014091;28;20212;-75
2024/02/09 05:12:44;;;;;;;4.33;3.93;;;;;;;4.76;93.07;97800.66;5014292;28;20659;-74
2024/02/09 05:15:10;;;;;;;4.50;4.10;;;;;;;4.76;93.39;97804.06;5013253;28;20738;-76
2024/02/09 05:17:39;;;;;;;5.30;4.87;;;;;;;4.72;93.46;97809.44;5013769;28;20720;-74
2024/02/09 05:20:07;;;;;;;4.53;4.13;;;;;;;4.72;93.59;97802.50;5014406;28;20209;-75
2024/02/09 05:22:33;;;;;;;4.53;4.13;;;;;;;4.80;93.19;97796.19;5013469;28;20233;-75
2024/02/09 05:25:02;;;;;;;4.60;4.20;;;;;;;4.84;93.50;97792.63;5021869;28;20254;-74
2024/02/09 05:27:29;;;;;;;5.00;4.60;;;;;;;4.84;93.75;97798.63;5013862;28;20631;-75
2024/02/09 05:29:55;;;;;;;4.97;4.57;;;;;;;4.84;93.18;97780.53;5013951;28;20220;-74
2024/02/09 05:32:22;;;;;;;5.27;4.77;;;;;;;4.86;93.34;97788.22;5013546;28;20290;-75
2024/02/09 05:34:48;;;;;;;5.23;4.80;;;;;;;4.85;93.37;97781.38;5013960;28;20675;-74
2024/02/09 05:37:17;;;;;;;5.07;4.67;;;;;;;4.88;93.46;97769.16;5013896;28;20228;-74
2024/02/09 05:39:45;;;;;;;4.43;4.03;;;;;;;4.87;93.94;97770.06;5021461;28;20256;-75
2024/02/09 05:42:12;;;;;;;4.70;4.33;;;;;;;4.92;93.08;97770.72;5012311;28;20233;-75
2024/02/09 05:44:39;;;;;;;5.33;4.83;;;;;;;4.94;92.66;97779.25;5013582;28;20204;-75
2024/02/09 05:47:05;;;;;;;5.37;4.97;;;;;;;4.92;92.99;97785.41;5013307;28;20293;-74
2024/02/09 05:49:31;;;;;;;5.90;5.40;;;;;;;4.92;93.35;97768.16;5013776;28;20208;-74
2024/02/09 05:51:59;;;;;;;5.90;5.40;;;;;;;4.92;94.10;97755.22;5013818;28;20210;-75
2024/02/09 05:54:25;;;;;;;6.47;5.93;;;;;;;4.97;94.21;97755.03;5012960;28;20219;-75
2024/02/09 05:56:52;;;;;;;5.83;5.33;;;;;;;4.95;94.23;97743.91;5013444;28;20234;-75
2024/02/09 05:59:21;;;;;;;5.97;5.47;;;;;;;5.00;94.26;97739.41;5021687;28;20204;-75
2024/02/09 06:01:47;;;;;;;6.10;5.50;;;;;;;4.99;93.96;97737.72;5013289;28;20232;-75
2024/02/09 06:04:14;;;;;;;6.40;5.90;;;;;;;5.02;94.29;97734.19;5013785;28;20212;-75
2024/02/09 06:06:44;;;;;;;6.10;5.60;;;;;;;5.01;94.72;97738.50;5013343;28;20294;-75
2024/02/09 06:09:10;;;;;;;6.00;5.40;;;;;;;5.02;94.27;97734.19;5012625;28;20212;-75
2024/02/09 06:11:37;;;;;;;6.83;6.13;;;;;;;5.03;94.24;97730.69;5012880;28;20414;-75
2024/02/09 06:14:03;;;;;;;6.77;6.17;;;;;;;5.04;94.74;97724.63;5013218;28;20209;-75
2024/02/09 06:16:31;;;;;;;7.07;6.47;;;;;;;5.02;95.25;97721.25;5012644;28;20580;-75
2024/02/09 06:18:57;;;;;;;6.57;5.93;;;;;;;5.04;94.67;97714.28;5013182;28;20208;-75
2024/02/09 06:21:24;;;;;;;6.37;5.87;;;;;;;5.05;94.66;97721.13;5012626;28;20261;-78
2024/02/09 06:23:51;;;;;;;7.20;6.60;;;;;;;5.01;95.19;97711.81;5013124;28;20659;-75
2024/02/09 06:26:17;;;;;;;6.60;6.00;;;;;;;5.04;95.01;97707.34;5012880;28;20232;-75
2024/02/09 06:28:46;;;;;;;7.17;6.47;;;;;;;5.08;95.36;97708.91;5012811;28;20215;-75
2024/02/09 06:31:15;;;;;;;7.63;7.00;;;;;;;5.09;95.38;97714.91;5012561;28;20300;-75
2024/02/09 06:33:49;;;;;;;9.07;8.27;;;;;;;5.12;95.61;97712.22;5012850;28;20208;-75
2024/02/09 06:36:16;;;;;;;8.13;7.33;;;;;;;5.10;94.73;97706.28;5012506;28;20249;-76
2024/02/09 06:38:42;;;;;;;8.47;7.77;;;;;;;5.07;95.40;97703.81;5012124;28;20207;-76
2024/02/09 06:41:09;;;;;;;6.80;6.20;;;;;;;5.08;95.09;97696.00;5012767;28;20209;-75
2024/02/09 06:43:35;;;;;;;8.13;7.43;;;;;;;5.09;95.71;97702.00;5012476;28;20205;-75
2024/02/09 06:46:01;;;;;;;8.50;7.70;;;;;;;5.11;95.70;97701.06;5017552;28;20322;-75
2024/02/09 06:48:29;;;;;;;8.43;7.63;;;;;;;5.15;95.78;97694.84;5005036;28;20209;-75
2024/02/09 06:50:58;;;;;;;8.97;8.07;;;;;;;5.16;95.48;97704.25;5012565;28;20211;-74
2024/02/09 06:53:25;;;;;;;8.10;7.30;;;;;;;5.14;95.26;97713.00;5011433;28;20283;-75
2024/02/09 06:55:53;;;;;;;8.30;7.60;;;;;;;5.16;94.79;97717.19;5013501;28;20229;-77
2024/02/09 06:58:19;;;;;;;8.63;7.83;;;;;;;5.15;95.23;97712.94;5013434;28;20217;-77
2024/02/09 07:00:48;;;;;;;9.57;8.67;;;;;;;5.17;94.99;97720.63;5013021;28;20734;-76
2024/02/09 07:03:15;;;;;;;9.27;8.43;;;;;;;5.20;94.95;97711.91;5013244;28;20222;-76
2024/02/09 07:05:41;;;;;;;10.50;9.57;;;;;;;5.29;94.92;97711.50;5021165;28;20202;-76
2024/02/09 07:08:09;;;;;;;8.87;8.07;;;;;;;5.28;95.05;97708.09;5011776;28;20232;-75
2024/02/09 07:10:35;;;;;;;11.13;10.03;;;;;;;5.28;95.19;97713.25;5016156;28;20204;-76
2024/02/09 07:13:02;;;;;;;10.37;9.37;;;;;;;5.29;94.40;97717.53;5012069;28;20264;-77
2024/02/09 07:15:29;;;;;;;9.80;8.80;;;;;;;5.29;95.54;97722.72;5011795;28;20578;-76
2024/02/09 07:17:56;;;;;;;8.53;7.70;;;;;;;5.31;95.08;97726.09;5003374;28;20227;-76
2024/02/09 07:20:22;;;;;;;10.00;8.90;;;;;;;5.32;94.53;97721.75;5019918;28;20641;-75
2024/02/09 07:22:49;;;;;;;10.10;8.93;;;;;;;5.30;95.55;97719.22;5011380;28;20779;-76
2024/02/09 07:25:16;;;;;;;10.73;9.63;;;;;;;5.34;95.57;97723.34;5011185;28;20746;-76
2024/02/09 07:27:43;;;;;;;11.87;9.97;;;;;;;5.36;95.23;97729.31;5013582;28;20227;-76
2024/02/09 07:30:11;;;;;;;11.53;9.70;;;;;;;5.36;94.67;97723.28;5012198;28;20235;-75
2024/02/09 07:32:37;;;;;;;13.20;9.73;;;;;;;5.35;94.72;97719.88;5011370;28;20255;-76
2024/02/09 07:35:05;;;;;;;10.73;9.63;;;;;;;5.36;95.08;97724.13;5012184;28;20268;-76
2024/02/09 07:37:31;;;;;;;11.27;10.17;;;;;;;5.39;95.04;97715.38;5011521;28;20233;-76
2024/02/09 07:39:59;;;;;;;10.87;9.60;;;;;;;5.36;95.51;97721.53;5011431;28;20198;-76
2024/02/09 07:42:27;;;;;;;12.27;9.33;;;;;;;5.41;95.15;97707.56;5011578;28;20650;-75
2024/02/09 07:44:53;;;;;;;9.73;8.80;;;;;;;5.43;95.04;97709.22;5011320;28;20256;-76
2024/02/09 07:47:20;;;;;;;9.80;8.80;;;;;;;5.47;95.30;97708.19;5011035;28;20297;-76
2024/02/09 07:49:46;;;;;;;14.55;12.95;;;;;;;5.58;95.42;97698.19;5010827;28;20450;-75
2024/02/09 07:52:13;;;;;;;10.47;9.37;;;;;;;5.65;94.85;97703.97;5011482;28;20207;-76
2024/02/09 07:54:39;;;;;;;11.37;9.03;;;;;;;5.67;94.91;97706.44;5011241;28;20205;-76
2024/02/09 07:57:07;;;;;;;11.00;9.83;;;;;;;5.72;94.91;97702.75;5011609;28;20229;-76
2024/02/09 07:59:35;;;;;;;10.07;9.17;;;;;;;5.72;94.37;97705.34;5011545;28;20206;-75
2024/02/09 08:02:01;;;;;;;10.63;9.07;;;;;;;5.69;93.98;97717.56;5010861;28;20238;-76
2024/02/09 08:04:30;;;;;;;9.97;9.00;;;;;;;5.69;94.31;97713.25;5011415;28;20681;-76
2024/02/09 08:06:57;;;;;;;8.70;7.90;;;;;;;5.68;94.79;97714.16;5017757;28;20291;-75
2024/02/09 08:09:23;;;;;;;9.90;8.70;;;;;;;5.71;94.33;97714.03;5018255;28;20211;-75
2024/02/09 08:11:50;;;;;;;11.23;9.83;;;;;;;5.71;94.41;97718.38;5024921;28;20246;-76
2024/02/09 08:14:16;;;;;;;11.87;9.27;;;;;;;5.74;94.62;97719.06;5017648;28;20204;-75
2024/02/09 08:16:46;;;;;;;11.53;9.40;;;;;;;5.77;94.70;97712.94;5016348;28;20220;-75
2024/02/09 08:19:12;;;;;;;9.67;8.73;;;;;;;5.78;94.44;97712.84;5018020;28;20272;-76
2024/02/09 08:21:39;;;;;;;9.73;8.83;;;;;;;5.78;95.12;97704.25;5010547;28;20258;-76
2024/02/09 08:24:06;;;;;;;9.23;8.33;;;;;;;5.78;94.75;97706.84;5017411;28;20213;-75
2024/02/09 08:26:32;;;;;;;10.80;8.60;;;;;;;5.84;95.06;97698.81;5025499;28;20271;-76
2024/02/09 08:28:59;;;;;;;11.23;8.73;;;;;;;5.84;94.88;97701.38;5014032;28;20201;-76
2024/02/09 08:31:26;;;;;;;8.97;8.07;;;;;;;5.87;95.28;97698.69;5008708;28;20234;-76
2024/02/09 08:33:53;;;;;;;9.73;8.73;;;;;;;5.92;94.79;97690.69;5016590;28;20199;-76
2024/02/09 08:36:22;;;;;;;8.83;8.03;;;;;;;5.92;95.25;97683.75;5015410;28;20799;-76
2024/02/09 08:38:49;;;;;;;9.00;8.10;;;;;;;5.93;95.49;97684.63;5012553;28;20663;-75
2024/02/09 08:41:15;;;;;;;8.73;7.90;;;;;;;5.99;95.38;97675.78;5017228;28;20648;-76
2024/02/09 08:43:42;;;;;;;9.40;8.17;;;;;;;6.05;95.40;97667.75;5020599;28;20223;-76
2024/02/09 08:46:09;;;;;;;9.10;8.30;;;;;;;6.11;96.31;97657.94;5016816;28;20205;-76
2024/02/09 08:48:35;;;;;;;8.43;7.63;;;;;;;6.11;95.53;97655.34;5016130;28;20220;-76
2024/02/09 08:51:03;;;;;;;9.67;8.00;;;;;;;6.13;96.33;97644.91;5013621;28;20219;-76
2024/02/09 08:53:30;;;;;;;9.47;8.57;;;;;;;6.18;96.08;97629.97;5009443;28;20209;-76
2024/02/09 08:55:56;;;;;;;8.00;7.30;;;;;;;6.24;96.43;97628.88;5014106;28;20210;-76
2024/02/09 08:58:23;;;;;;;9.50;8.60;;;;;;;6.31;96.72;97623.31;5017403;28;20226;-76
2024/02/09 09:00:49;;;;;;;8.10;7.27;;;;;;;6.30;96.58;97624.25;5017546;28;20202;-76
2024/02/09 09:03:16;;;;;;;8.93;7.80;;;;;;;6.40;96.72;97616.03;5017236;28;20228;-77
2024/02/09 09:05:47;;;;;;;8.77;7.97;;;;;;;6.40;97.77;97609.09;5019664;28;20288;-79
2024/02/09 09:08:15;;;;;;;9.20;8.30;;;;;;;6.44;98.84;97592.50;5016611;28;20256;-80
2024/02/09 09:10:41;;;;;;;9.10;8.30;;;;;;;6.54;99.05;97574.75;5017398;28;20214;-77
2024/02/09 09:13:10;;;;;;;9.23;8.27;;;;;;;6.53;100.00;97558.34;5017941;28;20199;-77
2024/02/09 09:15:37;;;;;;;8.83;7.93;;;;;;;6.57;100.00;97540.91;5027028;28;20207;-77
2024/02/09 09:18:04;;;;;;;9.30;8.33;;;;;;;6.68;100.00;97524.81;5016645;28;20227;-78
2024/02/09 09:20:30;;;;;;;11.27;8.87;;;;;;;6.68;100.00;97510.13;5017154;28;20687;-78
2024/02/09 09:22:58;;;;;;;11.10;10.00;;;;;;;6.71;100.00;97488.38;5014145;28;20224;-77
2024/02/09 09:25:26;;;;;;;10.50;9.50;;;;;;;6.83;100.00;97455.81;5017449;28;20199;-79
2024/02/09 09:27:52;;;;;;;9.37;6.67;;;;;;;7.02;100.00;97409.84;5015949;28;20223;-77
2024/02/09 09:30:19;;;;;;;9.03;6.70;;;;;;;7.30;100.00;97366.84;5016053;28;20261;-78
2024/02/09 09:32:45;;;;;;;8.67;6.00;;;;;;;7.79;100.00;97278.41;5022167;28;20270;-77
2024/02/09 09:35:11;;;;;;;15.13;8.23;;;;;;;8.05;100.00;97255.25;5017571;28;20574;-79
2024/02/09 09:37:38;;;;;;;6.03;4.70;;;;;;;8.27;100.00;97242.63;5017202;28;20227;-79
2024/02/09 09:40:08;;;;;;;7.83;5.63;;;;;;;8.48;100.00;97237.06;5017959;28;20337;-79
2024/02/09 09:42:36;;;;;;;9.07;6.30;;;;;;;8.55;100.00;97246.97;5017891;28;20227;-80
2024/02/09 09:45:07;;;;;;;5.13;4.23;;;;;;;8.74;100.00;97254.47;5015463;28;20669;-79
2024/02/09 09:47:34;;;;;;;4.73;3.70;;;;;;;8.88;100.00;97257.94;5002994;28;20227;-78
2024/02/09 09:50:01;;;;;;;4.90;3.90;;;;;;;8.95;100.00;97280.88;5005993;28;20210;-78
2024/02/09 09:52:30;;;;;;;5.87;2.97;;;;;;;9.08;100.00;97264.53;5016548;28;20685;-76
2024/02/09 09:55:00;;;;;;;4.13;3.13;;;;;;;9.30;100.00;97258.75;5016883;28;20748;-78
2024/02/09 09:57:26;;;;;;;3.97;3.47;;;;;;;9.49;100.00;97255.78;5017391;28;20241;-78
2024/02/09 09:59:54;;;;;;;5.17;3.23;;;;;;;9.65;100.00;97260.78;5013609;28;20728;-76
2024/02/09 10:02:21;;;;;;;3.17;2.90;;;;;;;9.73;100.00;97275.00;5013008;28;20222;-78
2024/02/09 10:04:49;;;;;;;2.43;2.20;;;;;;;9.83;100.00;97283.03;5011619;28;20198;-76
2024/02/09 10:07:19;;;;;;;2.80;2.47;;;;;;;9.88;100.00;97296.56;5014514;28;20238;-77
2024/02/09 10:09:46;;;;;;;3.10;2.40;;;;;;;9.84;100.00;97317.72;5014064;28;20206;-78
2024/02/09 10:12:14;;;;;;;4.17;2.40;;;;;;;9.94;100.00;97324.00;5015644;28;20678;-78
2024/02/09 10:14:41;;;;;;;2.30;2.10;;;;;;;9.92;100.00;97339.72;5016416;28;20265;-79
2024/02/09 10:17:10;;;;;;;2.27;1.70;;;;;;;9.96;100.00;97349.94;5016199;28;20671;-78
2024/02/09 10:19:37;;;;;;;2.40;2.10;;;;;;;9.99;100.00;97345.38;5010688;28;20210;-77
2024/02/09 10:22:05;;;;;;;3.17;1.70;;;;;;;10.10;100.00;97361.09;4997879;28;20207;-79
2024/02/09 10:24:32;;;;;;;1.43;1.33;;;;;;;10.16;100.00;97359.88;5015180;28;20202;-78
2024/02/09 10:26:58;;;;;;;4.40;2.33;;;;;;;10.18;100.00;97381.44;5015157;28;20783;-78
2024/02/09 10:29:27;;;;;;;2.20;1.80;;;;;;;10.18;100.00;97388.44;5015281;28;20207;-79
2024/02/09 10:31:54;;;;;;;3.20;2.07;;;;;;;10.13;100.00;97391.38;5017075;28;20261;-79
2024/02/09 10:34:21;;;;;;;2.43;1.87;;;;;;;10.25;100.00;97400.16;4999606;28;20200;-76
2024/02/09 10:36:48;;;;;;;2.23;1.50;;;;;;;10.29;100.00;97394.63;4997322;28;20218;-77
2024/02/09 10:39:14;;;;;;;1.97;1.17;;;;;;;10.33;100.00;97408.31;5013271;28;20242;-77
2024/02/09 10:41:46;;;;;;;2.57;1.57;;;;;;;10.31;100.00;97413.63;5014594;28;20206;-79
2024/02/09 10:44:16;;;;;;;1.67;1.40;;;;;;;10.32;100.00;97407.47;5017145;28;20237;-80
2024/02/09 10:46:44;;;;;;;3.73;1.57;;;;;;;10.37;100.00;97419.38;5013678;28;20602;-79
2024/02/09 10:49:11;;;;;;;2.50;1.43;;;;;;;10.47;100.00;97407.41;5016919;28;20575;-77
2024/02/09 10:51:41;;;;;;;2.70;1.70;;;;;;;10.58;100.00;97415.31;5007973;28;20235;-78
2024/02/09 10:54:14;;;;;;;2.67;1.90;;;;;;;10.66;100.00;97426.09;4995151;28;20199;-77
2024/02/09 10:56:42;;;;;;;1.70;1.43;;;;;;;10.67;100.00;97419.09;4996144;28;20223;-77
2024/02/09 10:59:10;;;;;;;2.57;1.97;;;;;;;10.75;100.00;97431.63;4995049;28;20238;-77
2024/02/09 11:01:37;;;;;;;3.10;1.47;;;;;;;10.71;100.00;97439.63;4995786;28;20243;-77
2024/02/09 11:04:04;;;;;;;2.20;1.43;;;;;;;10.76;100.00;97454.13;4995031;28;20727;-77
2024/02/09 11:06:32;;;;;;;2.43;1.50;;;;;;;10.87;100.00;97464.69;5002287;28;20254;-77
2024/02/09 11:09:00;;;;;;;2.67;1.70;;;;;;;10.95;100.00;97485.03;5013897;28;20206;-77
2024/02/09 11:11:28;;;;;;;3.67;1.37;;;;;;;10.93;100.00;97506.03;5000507;28;20197;-77
2024/02/09 11:14:05;;;;;;;3.73;1.60;;;;;;;11.05;100.00;97504.34;4994985;28;20244;-78
2024/02/09 11:16:31;;;;;;;2.90;1.20;;;;;;;11.06;100.00;97506.88;5010021;28;20705;-77
2024/02/09 11:18:57;;;;;;;2.23;1.40;;;;;;;11.21;100.00;97509.38;4992690;28;20215;-77
2024/02/09 11:21:26;;;;;;;2.07;1.40;;;;;;;11.23;100.00;97513.53;4993320;28;20262;-77
2024/02/09 11:23:52;;;;;;;1.90;1.20;;;;;;;11.27;100.00;97506.31;5011203;28;20226;-77
2024/02/09 11:26:21;;;;;;;1.70;1.40;;;;;;;11.30;100.00;97496.50;4998372;28;20262;-77
2024/02/09 11:28:47;;;;;;;1.30;1.20;;;;;;;11.33;100.00;97490.22;4992652;28;20212;-77
2024/02/09 11:31:18;;;;;;;2.20;1.47;;;;;;;11.42;100.00;97484.38;4998160;28;20199;-77
2024/02/09 11:33:46;;;;;;;2.80;1.40;;;;;;;11.57;100.00;97490.28;5012059;28;20277;-76
2024/02/09 11:36:12;;;;;;;1.40;1.20;;;;;;;11.59;100.00;97495.41;5011636;28;20211;-77
2024/02/09 11:38:38;;;;;;;2.93;1.30;;;;;;;11.68;100.00;97482.53;5012512;28;20257;-79
2024/02/09 11:41:05;;;;;;;2.03;1.60;;;;;;;11.79;100.00;97505.28;5010470;28;20202;-77
2024/02/09 11:43:33;;;;;;;1.40;1.20;;;;;;;11.90;100.00;97520.25;5012538;28;20235;-76
2024/02/09 11:46:01;;;;;;;1.27;1.10;;;;;;;11.84;100.00;97536.31;5012675;28;20207;-78
2024/02/09 11:48:28;;;;;;;3.50;1.20;;;;;;;11.79;100.00;97556.72;5012616;28;20208;-77
2024/02/09 11:50:59;;;;;;;2.30;1.60;;;;;;;11.78;100.00;97555.06;5011826;28;20215;-75
2024/02/09 11:53:26;;;;;;;2.67;1.40;;;;;;;11.91;100.00;97559.34;5011336;28;20199;-76
2024/02/09 11:55:53;;;;;;;1.40;1.30;;;;;;;11.93;100.00;97574.91;5011997;28;20210;-76
2024/02/09 11:58:20;;;;;;;1.20;1.10;;;;;;;11.90;100.00;97567.28;5011525;28;20780;-77
2024/02/09 12:00:50;;;;;;;2.63;1.30;;;;;;;12.05;100.00;97560.13;5011858;28;20207;-77
2024/02/09 12:03:17;;;;;;;1.73;1.60;;;;;;;12.25;100.00;97582.22;5011275;28;20320;-77
2024/02/09 12:05:45;;;;;;;2.10;1.10;;;;;;;12.26;98.92;97597.00;5011816;28;20296;-76
2024/02/09 12:08:12;;;;;;;1.30;1.20;;;;;;;12.29;98.89;97615.91;5004702;28;20223;-77
2024/02/09 12:10:38;;;;;;;1.97;0.90;;;;;;;12.22;96.67;97640.81;4993389;28;20205;-77
2024/02/09 12:13:05;;;;;;;2.27;1.03;;;;;;;12.43;97.21;97648.09;4992246;28;20262;-76
2024/02/09 12:15:32;;;;;;;1.20;1.10;;;;;;;12.49;96.72;97650.28;5000633;28;20746;-76
2024/02/09 12:18:01;;;;;;;1.13;1.03;;;;;;;12.70;95.21;97669.69;5003126;28;20230;-76
2024/02/09 12:20:28;;;;;;;2.87;1.00;;;;;;;12.78;95.46;97676.13;5011285;28;20246;-77
2024/02/09 12:22:56;;;;;;;1.10;1.10;;;;;;;13.07;93.14;97706.25;5006714;28;20199;-77
2024/02/09 12:25:25;;;;;;;1.50;0.93;;;;;;;13.07;91.57;97740.31;4994903;28;20848;-77
2024/02/09 12:27:56;;;;;;;1.20;1.10;;;;;;;13.54;90.80;97763.16;4993541;28;20247;-78
2024/02/09 12:30:36;;;;;;;1.63;1.20;;;;;;;13.64;88.85;97796.44;4994443;28;20262;-79
2024/02/09 12:33:12;;;;;;;1.13;1.03;;;;;;;14.19;88.23;97832.59;4993956;28;20580;-78
2024/02/09 12:35:57;;;;;;;1.60;1.13;;;;;;;14.29;85.19;97888.66;4994298;28;20267;-77
2024/02/09 12:38:27;;;;;;;2.47;1.20;;;;;;;14.01;85.44;97916.97;5010940;28;20232;-79
2024/02/09 12:40:56;;;;;;;0.80;0.80;;;;;;;14.40;84.53;97922.00;5012954;28;20213;-77
2024/02/09 12:43:23;;;;;;;1.83;1.10;;;;;;;14.58;83.54;97946.88;5011372;28;20231;-77
2024/02/09 12:45:49;;;;;;;0.87;0.87;;;;;;;14.43;81.83;97982.97;5011219;28;20220;-76
2024/02/09 12:48:20;;;;;;;2.53;1.00;;;;;;;14.52;82.18;97986.69;5010885;28;20295;-77
2024/02/09 12:50:46;;;;;;;2.07;1.27;;;;;;;14.43;80.99;98010.97;5011394;28;20247;-77
2024/02/09 12:53:14;;;;;;;1.93;1.20;;;;;;;14.43;82.02;98024.09;5013585;28;20279;-77
2024/02/09 12:55:41;;;;;;;1.33;1.10;;;;;;;14.30;82.34;98017.13;5012732;28;20203;-77
2024/02/09 12:58:09;;;;;;;2.30;1.47;;;;;;;14.18;82.38;98009.34;5015083;28;20235;-77
2024/02/09 13:00:36;;;;;;;1.97;1.10;;;;;;;14.15;83.65;97985.94;5014891;28;20273;-77
2024/02/09 13:03:02;;;;;;;2.10;1.23;;;;;;;13.91;83.78;97973.66;5014932;28;20211;-77
2024/02/09 13:05:30;;;;;;;1.30;1.13;;;;;;;13.95;85.10;97934.94;5013991;28;20213;-77
2024/02/09 13:07:58;;;;;;;2.80;1.30;;;;;;;14.05;83.66;97935.94;4994550;28;20244;-76
2024/02/09 13:10:25;;;;;;;1.53;1.43;;;;;;;14.20;83.12;97955.78;4995093;28;20221;-77
2024/02/09 13:12:51;;;;;;;2.63;1.20;;;;;;;14.06;82.86;97956.81;4995351;28;20207;-77
2024/02/09 13:15:19;;;;;;;1.27;1.23;;;;;;;14.09;81.68;97989.84;5001862;28;20222;-77
2024/02/09 13:17:46;;;;;;;2.17;1.10;;;;;;;14.13;83.48;97967.66;5014309;28;20230;-77
2024/02/09 13:20:18;;;;;;;1.67;1.27;;;;;;;14.22;83.76;97963.56;5014482;28;20628;-77
2024/02/09 13:22:47;;;;;;;3.23;1.37;;;;;;;14.08;83.77;97964.56;4994781;28;20276;-76
2024/02/09 13:25:15;;;;;;;1.83;1.20;;;;;;;13.88;81.88;97976.50;4994231;28;20235;-76